^^
Meteo Knjazevac Station Historical Data
Daily Summary for January 1, 2021 Units:  Both    English   Metric
Daily Weekly Monthly Yearly Custom
  High: Low: Average:
Temperature: 58.1 °F /  14.5 °C 51.8 °F /  11 °C 54.4 °F /  12.4 °C
Dew Point: 53.6 °F /  12 °C 49.8 °F /  9.9 °C 51.4 °F /  10.8 °C
Humidity: 93% 85% 90%
Wind Speed: 2mph /  3.2km/h - 0.6mph /  1km/h
Wind Gust: 4mph /  6.4km/h - -
Wind- - West
Pressure: 30.02 in /  1016.5 hPa 29.99 in /  1015.5 hPa -
Precipitation: 0.00 in /  0 mm    
Historical Graphs
 
 
Tabular Data for January 1, 2021
Time Temperature Dew Point Pressure Wind Wind Speed Wind Gust Humidity Rainfall Rate (Hourly) solar Conditions
00:00 58.1 °F /  14.5 °C 53.6 °F /  12 °C 30.01in /  1016.1hPa West 1mph /  1.6km/h 3mph /  4.8km/h 85% 0.00in /  0mm 0 W/m2
00:10 57.7 °F /  14.3 °C 53.5 °F /  11.9 °C 30.01in /  1016.1hPa Calm   2mph /  3.2km/h 86% 0.00in /  0mm 0 W/m2
00:20 57.4 °F /  14.1 °C 53.2 °F /  11.8 °C 30.01in /  1016.1hPa West 1mph /  1.6km/h 3mph /  4.8km/h 86% 0.00in /  0mm 0 W/m2
00:30 56.9 °F /  13.8 °C 52.7 °F /  11.5 °C 30.01in /  1016.1hPa Calm   2mph /  3.2km/h 86% 0.00in /  0mm 0 W/m2
00:40 56.5 °F /  13.6 °C 52.3 °F /  11.3 °C 30.02in /  1016.5hPa Calm   2mph /  3.2km/h 86% 0.00in /  0mm 0 W/m2
00:50 56.3 °F /  13.5 °C 52.8 °F /  11.6 °C 30.01in /  1016.1hPa Calm   2mph /  3.2km/h 88% 0.00in /  0mm 0 W/m2
01:00 56.3 °F /  13.5 °C 52.8 °F /  11.6 °C 30.01in /  1016.1hPa Calm   2mph /  3.2km/h 88% 0.00in /  0mm 0 W/m2
01:10 56.1 °F /  13.4 °C 52.6 °F /  11.4 °C 30.01in /  1016.1hPa Calm   2mph /  3.2km/h 88% 0.00in /  0mm 0 W/m2
01:20 55.9 °F /  13.3 °C 52.4 °F /  11.3 °C 30.01in /  1016.1hPa North 1mph /  1.6km/h 2mph /  3.2km/h 88% 0.00in /  0mm 0 W/m2
01:30 55.4 °F /  13 °C 51.9 °F /  11.1 °C 30.01in /  1016.1hPa Calm   2mph /  3.2km/h 88% 0.00in /  0mm 0 W/m2
01:40 54.9 °F /  12.7 °C 51.4 °F /  10.8 °C 30.01in /  1016.1hPa West 1mph /  1.6km/h 2mph /  3.2km/h 88% 0.00in /  0mm 0 W/m2
01:50 54.2 °F /  12.3 °C 51 °F /  10.6 °C 30.01in /  1016.1hPa NW 1mph /  1.6km/h 2mph /  3.2km/h 89% 0.00in /  0mm 0 W/m2
02:00 54 °F /  12.2 °C 50.8 °F /  10.4 °C 30.01in /  1016.1hPa WNW 1mph /  1.6km/h 3mph /  4.8km/h 89% 0.00in /  0mm 0 W/m2
02:10 54 °F /  12.2 °C 51.1 °F /  10.6 °C 30.01in /  1016.1hPa West 1mph /  1.6km/h 4mph /  6.4km/h 90% 0.00in /  0mm 0 W/m2
02:20 53.8 °F /  12.1 °C 51.2 °F /  10.7 °C 30.01in /  1016.1hPa Calm   3mph /  4.8km/h 91% 0.00in /  0mm 0 W/m2
02:30 54 °F /  12.2 °C 51.4 °F /  10.8 °C 30.01in /  1016.1hPa Calm   2mph /  3.2km/h 91% 0.00in /  0mm 0 W/m2
02:40 54 °F /  12.2 °C 51.4 °F /  10.8 °C 30.01in /  1016.1hPa West 1mph /  1.6km/h 3mph /  4.8km/h 91% 0.00in /  0mm 0 W/m2
02:50 54 °F /  12.2 °C 51.4 °F /  10.8 °C 30.01in /  1016.1hPa West 1mph /  1.6km/h 2mph /  3.2km/h 91% 0.00in /  0mm 0 W/m2
03:00 53.5 °F /  11.9 °C 50.6 °F /  10.3 °C 30.01in /  1016.1hPa West 1mph /  1.6km/h 2mph /  3.2km/h 90% 0.00in /  0mm 0 W/m2
03:10 53.1 °F /  11.7 °C 50.2 °F /  10.1 °C 30.00in /  1015.8hPa West 1mph /  1.6km/h 2mph /  3.2km/h 90% 0.00in /  0mm 0 W/m2
03:20 52.9 °F /  11.6 °C 50.3 °F /  10.2 °C 30.00in /  1015.8hPa Calm   2mph /  3.2km/h 91% 0.00in /  0mm 0 W/m2
03:30 52.9 °F /  11.6 °C 50.9 °F /  10.5 °C 30.00in /  1015.8hPa WNW 2mph /  3.2km/h 3mph /  4.8km/h 93% 0.00in /  0mm 0 W/m2
03:40 52.9 °F /  11.6 °C 50.9 °F /  10.5 °C 30.00in /  1015.8hPa West 1mph /  1.6km/h 3mph /  4.8km/h 93% 0.00in /  0mm 0 W/m2
03:50 52.9 °F /  11.6 °C 50.9 °F /  10.5 °C 30.00in /  1015.8hPa Calm   2mph /  3.2km/h 93% 0.00in /  0mm 0 W/m2
04:00 52.7 °F /  11.5 °C 50.7 °F /  10.4 °C 29.99in /  1015.5hPa Calm   2mph /  3.2km/h 93% 0.00in /  0mm 0 W/m2
04:10 52.3 °F /  11.3 °C 49.8 °F /  9.9 °C 29.99in /  1015.5hPa West 1mph /  1.6km/h 3mph /  4.8km/h 91% 0.00in /  0mm 0 W/m2
04:20 52.2 °F /  11.2 °C 50.2 °F /  10.1 °C 29.99in /  1015.5hPa WSW 1mph /  1.6km/h 3mph /  4.8km/h 93% 0.00in /  0mm 0 W/m2
04:30 52 °F /  11.1 °C 50 °F /  10 °C 29.99in /  1015.5hPa WSW 1mph /  1.6km/h 2mph /  3.2km/h 93% 0.00in /  0mm 0 W/m2
04:40 51.8 °F /  11 °C 49.8 °F /  9.9 °C 29.99in /  1015.5hPa West 1mph /  1.6km/h 3mph /  4.8km/h 93% 0.00in /  0mm 0 W/m2
Knjazevac, Serbia
Compliments of Weather Underground - 2 mb